createdAt,value
2022-10-11T00:00:03.073Z,86.86
2022-10-11T00:01:03.117Z,86.86
2022-10-11T00:02:03.065Z,86.86
2022-10-11T00:03:03.054Z,86.86
2022-10-11T00:04:03.031Z,86.96
2022-10-11T00:05:03.041Z,86.96
2022-10-11T00:06:03.566Z,86.96
2022-10-11T00:07:03.031Z,86.96
2022-10-11T00:08:03.006Z,86.96
2022-10-11T00:09:02.992Z,86.96
2022-10-11T00:10:02.982Z,87.06
2022-10-11T00:11:02.975Z,87.06
2022-10-11T00:12:02.977Z,87.06
2022-10-11T00:13:02.996Z,87.06
2022-10-11T00:14:02.957Z,87.06
2022-10-11T00:15:02.944Z,87.06
2022-10-11T00:16:03.239Z,87.16
2022-10-11T00:17:02.939Z,87.16
2022-10-11T00:18:05.430Z,87.16
2022-10-11T00:19:02.916Z,87.16
2022-10-11T00:20:02.909Z,87.16
2022-10-11T00:21:02.895Z,87.16
2022-10-11T00:22:02.889Z,87.26
2022-10-11T00:23:02.890Z,87.16
2022-10-11T00:24:02.870Z,87.26
2022-10-11T00:25:02.892Z,87.26
2022-10-11T00:26:03.281Z,87.26
2022-10-11T00:27:02.852Z,87.26
2022-10-11T00:28:02.829Z,87.26
2022-10-11T00:29:02.832Z,87.26
2022-10-11T00:30:02.809Z,87.37
2022-10-11T00:31:03.236Z,87.26
2022-10-11T00:32:02.796Z,87.26
2022-10-11T00:33:02.789Z,87.37
2022-10-11T00:34:02.770Z,87.37
2022-10-11T00:35:02.784Z,87.37
2022-10-11T00:36:03.131Z,87.47
2022-10-11T00:37:02.786Z,87.32
2022-10-11T00:38:02.755Z,87.47
2022-10-11T00:39:02.745Z,87.47
2022-10-11T00:40:02.724Z,87.43
2022-10-11T00:41:02.735Z,87.43
2022-10-11T00:42:02.717Z,87.47
2022-10-11T00:43:02.736Z,87.47
2022-10-11T00:44:02.684Z,87.43
2022-10-11T00:45:02.697Z,87.43
2022-10-11T00:46:03.127Z,87.57
2022-10-11T00:47:02.685Z,87.53
2022-10-11T00:48:02.655Z,87.53
2022-10-11T00:49:02.679Z,87.53
2022-10-11T00:50:02.637Z,87.63
2022-10-11T00:51:03.008Z,87.63
2022-10-11T00:52:02.624Z,87.63
2022-10-11T00:53:02.616Z,87.63
2022-10-11T00:54:02.618Z,87.63
2022-10-11T00:55:02.653Z,87.63
2022-10-11T00:56:02.881Z,87.73
2022-10-11T00:57:02.589Z,87.73
2022-10-11T00:58:02.590Z,87.73
2022-10-11T00:59:02.559Z,87.73
2022-10-11T01:00:02.561Z,87.73
2022-10-11T01:01:02.599Z,87.73
2022-10-11T01:02:02.553Z,87.73
2022-10-11T01:03:02.546Z,87.73
2022-10-11T01:04:02.536Z,87.73
2022-10-11T01:05:27.615Z,87.73
2022-10-11T01:06:02.812Z,87.73
2022-10-11T01:07:02.530Z,87.73
2022-10-11T01:08:02.497Z,87.84
2022-10-11T01:09:02.474Z,87.73
2022-10-11T01:10:02.492Z,87.73
2022-10-11T01:11:02.476Z,87.73
2022-10-11T01:12:02.466Z,87.73
2022-10-11T01:13:02.463Z,87.73
2022-10-11T01:14:02.455Z,87.73
2022-10-11T01:15:02.423Z,87.84
2022-10-11T01:16:02.904Z,87.84
2022-10-11T01:17:02.418Z,87.84
2022-10-11T01:18:02.404Z,87.84
2022-10-11T01:19:02.406Z,87.84
2022-10-11T01:20:02.385Z,87.84
2022-10-11T01:21:02.376Z,87.84
2022-10-11T01:22:02.380Z,87.84
2022-10-11T01:23:02.356Z,87.84
2022-10-11T01:24:07.508Z,87.84
2022-10-11T01:25:02.371Z,87.84
2022-10-11T01:26:02.765Z,87.84
2022-10-11T01:27:02.318Z,87.79
2022-10-11T01:28:02.333Z,87.84
2022-10-11T01:29:02.298Z,87.94
2022-10-11T01:30:02.313Z,87.90
2022-10-11T01:31:02.300Z,87.90
2022-10-11T01:32:02.293Z,87.90
2022-10-11T01:33:02.283Z,88.00
2022-10-11T01:34:02.280Z,87.90
2022-10-11T01:35:02.266Z,87.90
2022-10-11T01:36:02.665Z,88.00
2022-10-11T01:37:02.264Z,88.00
2022-10-11T01:38:02.243Z,88.00
2022-10-11T01:39:02.211Z,88.00
2022-10-11T01:40:02.212Z,88.00
2022-10-11T01:41:02.209Z,87.90
2022-10-11T01:42:02.202Z,88.00
2022-10-11T01:43:02.207Z,88.00
2022-10-11T01:44:02.187Z,88.00
2022-10-11T01:45:02.156Z,87.90
2022-10-11T01:46:02.582Z,88.00
2022-10-11T01:47:02.141Z,88.00
2022-10-11T01:48:02.154Z,88.00
2022-10-11T01:49:02.148Z,88.00
2022-10-11T01:50:02.116Z,88.00
2022-10-11T01:51:02.120Z,88.00
2022-10-11T01:52:02.106Z,88.00
2022-10-11T01:53:02.104Z,88.00
2022-10-11T01:54:02.101Z,88.00
2022-10-11T01:55:09.553Z,88.00
2022-10-11T01:56:02.466Z,88.00
2022-10-11T01:57:02.047Z,88.00
2022-10-11T01:58:02.050Z,88.00
2022-10-11T01:59:02.044Z,88.00
2022-10-11T02:00:02.028Z,88.00
2022-10-11T02:01:02.209Z,88.00
2022-10-11T02:02:02.022Z,88.10
2022-10-11T02:03:02.000Z,88.00
2022-10-11T02:04:02.003Z,88.00
2022-10-11T02:05:01.981Z,88.00
2022-10-11T02:06:02.462Z,88.10
2022-10-11T02:07:01.995Z,88.10
2022-10-11T02:08:01.953Z,88.00
2022-10-11T02:09:05.700Z,88.10
2022-10-11T02:10:01.934Z,88.10
2022-10-11T02:11:01.922Z,88.10
2022-10-11T02:12:01.944Z,88.10
2022-10-11T02:13:01.938Z,88.10
2022-10-11T02:14:01.903Z,88.10
2022-10-11T02:15:01.884Z,88.10
2022-10-11T02:16:02.345Z,88.10
2022-10-11T02:17:01.887Z,88.10
2022-10-11T02:18:01.879Z,88.10
2022-10-11T02:19:01.875Z,88.10
2022-10-11T02:20:01.858Z,88.10
2022-10-11T02:21:01.835Z,88.10
2022-10-11T02:22:01.838Z,88.10
2022-10-11T02:23:01.830Z,88.10
2022-10-11T02:24:01.827Z,88.10
2022-10-11T02:25:01.838Z,88.10
2022-10-11T02:26:02.076Z,88.10
2022-10-11T02:27:01.778Z,88.20
2022-10-11T02:28:01.777Z,88.20
2022-10-11T02:29:01.758Z,88.20
2022-10-11T02:30:01.759Z,88.20
2022-10-11T02:31:01.772Z,88.20
2022-10-11T02:32:01.740Z,88.20
2022-10-11T02:33:01.743Z,88.20
2022-10-11T02:34:01.742Z,88.20
2022-10-11T02:35:01.712Z,88.20
2022-10-11T02:36:01.958Z,88.20
2022-10-11T02:37:01.719Z,88.20
2022-10-11T02:38:01.692Z,88.20
2022-10-11T02:39:01.672Z,88.31
2022-10-11T02:40:01.698Z,88.20
2022-10-11T02:41:01.660Z,88.31
2022-10-11T02:42:01.665Z,88.31
2022-10-11T02:43:01.666Z,88.31
2022-10-11T02:44:01.640Z,88.26
2022-10-11T02:45:01.623Z,88.31
2022-10-11T02:46:01.947Z,88.26
2022-10-11T02:47:01.629Z,88.31
2022-10-11T02:48:01.603Z,88.26
2022-10-11T02:49:01.619Z,88.26
2022-10-11T02:50:01.585Z,88.26
2022-10-11T02:51:01.574Z,88.26
2022-10-11T02:52:01.565Z,88.26
2022-10-11T02:53:01.569Z,88.26
2022-10-11T02:54:01.557Z,88.26
2022-10-11T02:55:01.572Z,88.36
2022-10-11T02:56:01.820Z,88.26
2022-10-11T02:57:01.533Z,88.26
2022-10-11T02:58:01.521Z,88.26
2022-10-11T02:59:01.509Z,88.36
2022-10-11T03:00:01.513Z,88.36
2022-10-11T03:01:01.526Z,88.36
2022-10-11T03:02:01.549Z,88.26
2022-10-11T03:03:01.478Z,88.36
2022-10-11T03:04:01.483Z,88.36
2022-10-11T03:05:01.463Z,88.26
2022-10-11T03:06:01.867Z,88.26
2022-10-11T03:07:01.465Z,88.36
2022-10-11T03:08:01.439Z,88.36
2022-10-11T03:09:01.435Z,88.36
2022-10-11T03:10:01.424Z,88.36
2022-10-11T03:11:01.404Z,88.36
2022-10-11T03:12:01.402Z,88.36
2022-10-11T03:13:01.426Z,88.36
2022-10-11T03:14:01.396Z,88.36
2022-10-11T03:15:01.376Z,88.46
2022-10-11T03:16:03.622Z,88.36
2022-10-11T03:17:23.644Z,88.36
2022-10-11T03:18:01.357Z,88.36
2022-10-11T03:19:01.352Z,88.36
2022-10-11T03:20:01.346Z,88.36
2022-10-11T03:21:01.315Z,88.46
2022-10-11T03:22:01.316Z,88.46
2022-10-11T03:23:01.317Z,88.46
2022-10-11T03:24:01.309Z,88.46
2022-10-11T03:25:04.284Z,88.46
2022-10-11T03:26:01.325Z,88.46
2022-10-11T03:27:01.280Z,88.36
2022-10-11T03:28:01.267Z,88.46
2022-10-11T03:29:01.251Z,88.36
2022-10-11T03:30:01.261Z,88.36
2022-10-11T03:31:01.252Z,88.36
2022-10-11T03:32:01.230Z,88.36
2022-10-11T03:33:01.234Z,88.36
2022-10-11T03:34:01.232Z,88.36
2022-10-11T03:35:01.214Z,88.36
2022-10-11T03:36:01.333Z,88.36
2022-10-11T03:37:01.190Z,88.36
2022-10-11T03:38:01.183Z,88.36
2022-10-11T03:39:01.186Z,88.36
2022-10-11T03:40:01.181Z,88.36
2022-10-11T03:41:01.166Z,88.36
2022-10-11T03:42:01.153Z,88.36
2022-10-11T03:43:01.155Z,88.36
2022-10-11T03:44:01.132Z,88.36
2022-10-11T03:45:01.130Z,88.36
2022-10-11T03:46:01.131Z,88.36
2022-10-11T03:47:01.104Z,88.36
2022-10-11T03:48:01.127Z,88.36
2022-10-11T03:49:01.109Z,88.36
2022-10-11T03:50:01.082Z,88.46
2022-10-11T03:51:01.065Z,88.46
2022-10-11T03:52:01.079Z,88.36
2022-10-11T03:53:01.054Z,88.36
2022-10-11T03:54:01.046Z,88.36
2022-10-11T03:55:01.057Z,88.36
2022-10-11T03:56:05.894Z,88.36
2022-10-11T03:57:01.017Z,88.36
2022-10-11T03:58:01.030Z,88.36
2022-10-11T03:59:01.011Z,88.36
2022-10-11T04:00:01.011Z,88.36
2022-10-11T04:01:01.021Z,88.36
2022-10-11T04:02:01.056Z,88.36
2022-10-11T04:03:00.969Z,88.36
2022-10-11T04:04:00.970Z,88.36
2022-10-11T04:05:00.963Z,88.36
2022-10-11T04:06:00.980Z,88.36
2022-10-11T04:07:00.951Z,88.46
2022-10-11T04:08:00.930Z,88.46
2022-10-11T04:09:00.921Z,88.46
2022-10-11T04:10:00.911Z,88.46
2022-10-11T04:11:00.901Z,88.46
2022-10-11T04:12:00.906Z,88.36
2022-10-11T04:13:00.906Z,88.36
2022-10-11T04:14:00.895Z,88.36
2022-10-11T04:15:00.883Z,88.36
2022-10-11T04:16:01.033Z,88.36
2022-10-11T04:17:00.870Z,88.36
2022-10-11T04:18:00.844Z,88.36
2022-10-11T04:19:00.864Z,88.36
2022-10-11T04:20:00.845Z,88.36
2022-10-11T04:21:00.828Z,88.36
2022-10-11T04:22:00.817Z,88.36
2022-10-11T04:23:00.804Z,88.36
2022-10-11T04:24:00.796Z,88.36
2022-10-11T04:25:00.810Z,88.26
2022-10-11T04:26:00.851Z,88.26
2022-10-11T04:27:00.767Z,88.26
2022-10-11T04:28:00.782Z,88.26
2022-10-11T04:29:00.767Z,88.26
2022-10-11T04:30:00.747Z,88.26
2022-10-11T04:31:00.761Z,88.16
2022-10-11T04:32:00.732Z,88.16
2022-10-11T04:33:00.718Z,88.16
2022-10-11T04:34:00.709Z,88.26
2022-10-11T04:35:00.699Z,88.16
2022-10-11T04:36:00.725Z,88.16
2022-10-11T04:37:00.718Z,88.16
2022-10-11T04:38:00.693Z,88.16
2022-10-11T04:39:00.670Z,88.16
2022-10-11T04:40:00.661Z,88.16
2022-10-11T04:41:00.653Z,88.26
2022-10-11T04:42:00.657Z,88.16
2022-10-11T04:43:00.665Z,88.16
2022-10-11T04:44:00.646Z,88.16
2022-10-11T04:45:00.626Z,88.20
2022-10-11T04:46:00.628Z,88.16
2022-10-11T04:47:00.607Z,88.16
2022-10-11T04:48:00.610Z,88.31
2022-10-11T04:49:00.593Z,88.20
2022-10-11T04:50:00.588Z,88.16
2022-10-11T04:51:00.574Z,88.20
2022-10-11T04:52:00.579Z,88.20
2022-10-11T04:53:00.560Z,88.20
2022-10-11T04:54:00.566Z,88.10
2022-10-11T04:55:00.556Z,88.10
2022-10-11T04:56:00.540Z,88.10
2022-10-11T04:57:00.529Z,88.10
2022-10-11T04:58:00.511Z,88.10
2022-10-11T04:59:00.512Z,88.10
2022-10-11T05:00:00.497Z,88.10
2022-10-11T05:01:00.508Z,88.10
2022-10-11T05:02:00.550Z,88.00
2022-10-11T05:03:00.468Z,88.00
2022-10-11T05:04:00.469Z,88.00
2022-10-11T05:05:00.462Z,88.00
2022-10-11T05:06:05.183Z,87.90
2022-10-11T05:07:00.455Z,87.90
2022-10-11T05:08:00.445Z,87.90
2022-10-11T05:09:00.424Z,87.90
2022-10-11T05:10:00.414Z,87.90
2022-10-11T05:11:00.401Z,87.90
2022-10-11T05:12:00.391Z,87.90
2022-10-11T05:13:00.402Z,88.04
2022-10-11T05:14:00.385Z,88.04
2022-10-11T05:15:00.371Z,88.00
2022-10-11T05:16:00.353Z,88.04
2022-10-11T05:17:00.353Z,88.04
2022-10-11T05:18:00.357Z,88.04
2022-10-11T05:19:00.364Z,88.04
2022-10-11T05:20:00.324Z,88.04
2022-10-11T05:21:00.329Z,88.04
2022-10-11T05:22:00.436Z,88.14
2022-10-11T05:23:00.317Z,88.14
2022-10-11T05:24:00.299Z,88.14
2022-10-11T05:25:00.310Z,88.14
2022-10-11T05:26:00.267Z,88.14
2022-10-11T05:27:03.357Z,88.14
2022-10-11T05:28:00.260Z,88.14
2022-10-11T05:29:00.330Z,88.14
2022-10-11T05:30:00.253Z,88.14
2022-10-11T05:31:00.261Z,88.14
2022-10-11T05:32:00.217Z,88.14
2022-10-11T05:33:00.209Z,88.14
2022-10-11T05:34:00.202Z,88.14
2022-10-11T05:35:00.202Z,88.14
2022-10-11T05:36:00.180Z,88.24
2022-10-11T05:37:00.306Z,88.24
2022-10-11T05:38:00.176Z,88.24
2022-10-11T05:39:00.161Z,88.24
2022-10-11T05:40:00.152Z,88.24
2022-10-11T05:41:00.141Z,88.34
2022-10-11T05:42:00.131Z,88.34
2022-10-11T05:43:00.146Z,88.34
2022-10-11T05:44:00.131Z,88.34
2022-10-11T05:45:00.128Z,88.34
2022-10-11T05:46:00.092Z,88.34
2022-10-11T05:47:00.106Z,88.34
2022-10-11T05:48:00.091Z,88.34
2022-10-11T05:49:00.166Z,88.45
2022-10-11T05:50:00.129Z,88.45
2022-10-11T05:51:00.076Z,88.45
2022-10-11T05:52:00.060Z,88.45
2022-10-11T05:53:00.073Z,88.45
2022-10-11T05:54:00.040Z,88.55
2022-10-11T05:55:00.045Z,88.55
2022-10-11T05:56:00.006Z,88.55
2022-10-11T05:57:00.006Z,88.55
2022-10-11T05:57:59.997Z,88.65
2022-10-11T05:59:02.368Z,88.65
2022-10-11T05:59:59.979Z,88.65
2022-10-11T06:01:00.057Z,88.75
2022-10-11T06:01:59.972Z,88.75
2022-10-11T06:02:59.972Z,88.75
2022-10-11T06:03:59.941Z,88.85
2022-10-11T06:04:59.945Z,88.85
2022-10-11T06:05:59.938Z,88.96
2022-10-11T06:06:59.949Z,88.96
2022-10-11T06:07:59.925Z,88.96
2022-10-11T06:08:59.924Z,88.96
2022-10-11T06:09:59.890Z,88.96
2022-10-11T06:10:59.893Z,88.96
2022-10-11T06:11:59.955Z,89.06
2022-10-11T06:12:59.926Z,89.01
2022-10-11T06:13:59.875Z,89.06
2022-10-11T06:14:59.867Z,89.01
2022-10-11T06:15:59.844Z,89.01
2022-10-11T06:16:59.840Z,89.01
2022-10-11T06:17:59.837Z,88.92
2022-10-11T06:18:59.834Z,88.92
2022-10-11T06:19:59.803Z,89.01
2022-10-11T06:20:59.814Z,89.01
2022-10-11T06:21:59.809Z,89.01
2022-10-11T06:22:59.806Z,89.01
2022-10-11T06:24:01.561Z,89.01
2022-10-11T06:24:59.807Z,89.01
2022-10-11T06:25:59.757Z,89.12
2022-10-11T06:26:59.770Z,89.12
2022-10-11T06:27:59.745Z,89.12
2022-10-11T06:28:59.790Z,89.22
2022-10-11T06:29:59.727Z,89.22
2022-10-11T06:30:59.730Z,89.22
2022-10-11T06:31:59.708Z,89.22
2022-10-11T06:33:04.446Z,89.32
2022-10-11T06:33:59.703Z,89.32
2022-10-11T06:34:59.688Z,89.32
2022-10-11T06:35:59.678Z,89.32
2022-10-11T06:36:59.704Z,89.32
2022-10-11T06:37:59.660Z,89.32
2022-10-11T06:38:59.661Z,89.42
2022-10-11T06:39:59.640Z,89.32
2022-10-11T06:40:59.654Z,89.42
2022-10-11T06:41:59.629Z,89.42
2022-10-11T06:42:59.643Z,89.42
2022-10-11T06:43:59.626Z,89.48
2022-10-11T06:44:59.617Z,89.59
2022-10-11T06:45:59.593Z,89.48
2022-10-11T06:46:59.733Z,89.48
2022-10-11T06:47:59.587Z,89.48
2022-10-11T06:48:59.608Z,89.48
2022-10-11T06:49:59.567Z,89.48
2022-10-11T06:51:00.683Z,89.38
2022-10-11T06:51:59.566Z,89.48
2022-10-11T06:52:59.558Z,89.48
2022-10-11T06:53:59.536Z,89.48
2022-10-11T06:54:59.550Z,89.59
2022-10-11T06:55:59.507Z,89.59
2022-10-11T06:56:59.536Z,89.48
2022-10-11T06:57:59.500Z,89.38
2022-10-11T06:58:59.504Z,89.38
2022-10-11T06:59:59.488Z,89.38
2022-10-11T07:00:59.555Z,89.38
2022-10-11T07:01:59.458Z,89.38
2022-10-11T07:02:59.448Z,89.34
2022-10-11T07:03:59.453Z,89.38
2022-10-11T07:04:59.453Z,89.34
2022-10-11T07:06:02.393Z,89.34
2022-10-11T07:06:59.439Z,89.44
2022-10-11T07:07:59.413Z,89.34
2022-10-11T07:08:59.411Z,89.44
2022-10-11T07:09:59.391Z,89.54
2022-10-11T07:10:59.391Z,89.44
2022-10-11T07:11:59.385Z,89.44
2022-10-11T07:12:59.382Z,89.44
2022-10-11T07:13:59.367Z,89.44
2022-10-11T07:14:59.366Z,89.54
2022-10-11T07:15:59.332Z,89.54
2022-10-11T07:16:59.354Z,89.64
2022-10-11T07:17:59.324Z,89.64
2022-10-11T07:19:00.671Z,89.64
2022-10-11T07:19:59.304Z,89.75
2022-10-11T07:20:59.317Z,89.75
2022-10-11T07:21:59.284Z,89.81
2022-10-11T07:22:59.284Z,89.81
2022-10-11T07:23:59.292Z,89.81
2022-10-11T07:24:59.274Z,89.81
2022-10-11T07:25:59.259Z,89.81
2022-10-11T07:26:59.246Z,89.91
2022-10-11T07:27:59.247Z,89.91
2022-10-11T07:28:59.303Z,90.01
2022-10-11T07:29:59.216Z,90.01
2022-10-11T07:30:59.229Z,90.01
2022-10-11T07:31:59.199Z,89.91
2022-10-11T07:32:59.201Z,90.01
2022-10-11T07:33:59.193Z,89.87
2022-10-11T07:34:59.210Z,89.97
2022-10-11T07:35:59.159Z,89.97
2022-10-11T07:36:59.191Z,89.97
2022-10-11T07:37:59.171Z,89.87
2022-10-11T07:38:59.153Z,89.76
2022-10-11T07:39:59.135Z,89.76
2022-10-11T07:40:59.134Z,89.76
2022-10-11T07:41:59.124Z,89.76
2022-10-11T07:42:59.111Z,89.66
2022-10-11T07:43:59.092Z,89.76
2022-10-11T07:44:59.082Z,89.76
2022-10-11T07:45:59.090Z,89.76
2022-10-11T07:46:59.096Z,89.76
2022-10-11T07:47:59.078Z,89.76
2022-10-11T07:48:59.054Z,89.76
2022-10-11T07:49:59.034Z,89.87
2022-10-11T07:50:59.046Z,89.87
2022-10-11T07:51:59.014Z,89.97
2022-10-11T07:52:59.028Z,89.97
2022-10-11T07:54:01.349Z,89.97
2022-10-11T07:54:59.036Z,89.97
2022-10-11T07:55:58.996Z,89.97
2022-10-11T07:56:58.977Z,89.97
2022-10-11T07:57:58.965Z,90.07
2022-10-11T07:58:58.971Z,90.07
2022-10-11T07:59:58.948Z,89.97
2022-10-11T08:00:58.985Z,89.92
2022-10-11T08:01:59.053Z,90.03
2022-10-11T08:02:58.931Z,89.92
2022-10-11T08:03:58.908Z,90.03
2022-10-11T08:04:58.921Z,90.03
2022-10-11T08:05:58.889Z,90.03
2022-10-11T08:06:58.903Z,89.92
2022-10-11T08:07:58.871Z,90.03
2022-10-11T08:08:58.871Z,89.92
2022-10-11T08:09:58.851Z,90.03
2022-10-11T08:10:58.863Z,90.03
2022-10-11T08:11:58.846Z,90.13
2022-10-11T08:13:04.130Z,90.03
2022-10-11T08:13:58.822Z,90.13
2022-10-11T08:14:58.826Z,90.23
2022-10-11T08:15:58.815Z,90.13
2022-10-11T08:16:58.803Z,90.23
2022-10-11T08:17:58.797Z,90.23
2022-10-11T08:18:58.806Z,90.13
2022-10-11T08:19:58.762Z,90.13
2022-10-11T08:20:58.769Z,90.13
2022-10-11T08:21:58.744Z,90.13
2022-10-11T08:22:58.767Z,90.23
2022-10-11T08:23:58.726Z,90.13
2022-10-11T08:24:58.740Z,90.03
2022-10-11T08:25:58.719Z,90.03
2022-10-11T08:26:58.706Z,90.03
2022-10-11T08:27:58.704Z,90.03
2022-10-11T08:28:58.708Z,89.98
2022-10-11T08:29:58.682Z,90.09
2022-10-11T08:30:58.682Z,89.98
2022-10-11T08:31:58.662Z,89.98
2022-10-11T08:32:58.661Z,89.98
2022-10-11T08:33:58.642Z,89.98
2022-10-11T08:34:58.644Z,89.98
2022-10-11T08:35:58.629Z,89.98
2022-10-11T08:36:58.635Z,90.09
2022-10-11T08:37:58.590Z,90.09
2022-10-11T08:38:58.604Z,90.09
2022-10-11T08:39:58.594Z,90.19
2022-10-11T08:40:58.592Z,90.29
2022-10-11T08:41:58.566Z,90.19
2022-10-11T08:42:58.586Z,90.29
2022-10-11T08:43:58.556Z,90.29
2022-10-11T08:45:10.427Z,90.29
2022-10-11T08:45:58.536Z,90.19
2022-10-11T08:47:00.542Z,90.19
2022-10-11T08:47:58.503Z,90.05
2022-10-11T08:48:58.513Z,90.14
2022-10-11T08:49:58.485Z,90.14
2022-10-11T08:50:58.487Z,90.14
2022-10-11T08:51:58.478Z,90.14
2022-10-11T08:52:58.478Z,90.14
2022-10-11T08:53:59.817Z,90.05
2022-10-11T08:54:58.465Z,90.05
2022-10-11T08:55:58.425Z,90.14
2022-10-11T08:56:58.427Z,90.05
2022-10-11T08:57:58.421Z,89.94
2022-10-11T08:58:58.418Z,90.05
2022-10-11T08:59:58.401Z,89.94
2022-10-11T09:00:58.398Z,90.05
2022-10-11T09:01:58.406Z,89.94
2022-10-11T09:03:13.182Z,89.94
2022-10-11T09:03:58.359Z,89.94
2022-10-11T09:04:58.348Z,89.94
2022-10-11T09:05:58.338Z,89.84
2022-10-11T09:07:01.341Z,89.84
2022-10-11T09:07:58.333Z,89.84
2022-10-11T09:08:58.339Z,89.84
2022-10-11T09:09:58.315Z,89.84
2022-10-11T09:10:58.294Z,89.84
2022-10-11T09:11:58.288Z,89.84
2022-10-11T09:12:58.315Z,89.84
2022-10-11T09:13:58.262Z,89.84
2022-10-11T09:14:58.264Z,89.84
2022-10-11T09:15:58.245Z,89.84
2022-10-11T09:16:58.256Z,89.64
2022-10-11T09:17:58.225Z,89.74
2022-10-11T09:18:58.233Z,89.74
2022-10-11T09:19:58.218Z,89.74
2022-10-11T09:20:58.204Z,89.59
2022-10-11T09:21:58.184Z,89.70
2022-10-11T09:22:58.197Z,89.80
2022-10-11T09:23:58.181Z,89.80
2022-10-11T09:24:58.209Z,89.90
2022-10-11T09:25:58.146Z,90.00
2022-10-11T09:26:58.146Z,90.00
2022-10-11T09:28:02.851Z,90.11
2022-10-11T09:29:01.252Z,90.20
2022-10-11T09:29:58.130Z,90.20
2022-10-11T09:30:58.140Z,90.31
2022-10-11T09:31:58.249Z,90.31
2022-10-11T09:32:58.113Z,90.16
2022-10-11T09:33:58.078Z,90.16
2022-10-11T09:34:58.085Z,90.06
2022-10-11T09:35:58.073Z,90.16
2022-10-11T09:36:58.059Z,90.16
2022-10-11T09:37:58.054Z,89.96
2022-10-11T09:38:58.054Z,89.96
2022-10-11T09:39:58.021Z,89.96
2022-10-11T09:40:58.025Z,89.96
2022-10-11T09:41:58.004Z,89.86
2022-10-11T09:42:58.012Z,89.92
2022-10-11T09:43:57.996Z,90.02
2022-10-11T09:44:57.981Z,89.92
2022-10-11T09:45:57.976Z,90.02
2022-10-11T09:46:57.968Z,89.92
2022-10-11T09:47:57.944Z,90.02
2022-10-11T09:48:57.953Z,90.02
2022-10-11T09:49:57.937Z,90.02
2022-10-11T09:50:57.962Z,90.22
2022-10-11T09:51:57.917Z,90.08
2022-10-11T09:52:58.066Z,90.08
2022-10-11T09:53:57.896Z,90.08
2022-10-11T09:54:57.901Z,90.08
2022-10-11T09:55:57.890Z,90.08
2022-10-11T09:56:57.871Z,89.98
2022-10-11T09:57:57.857Z,90.08
2022-10-11T09:58:57.838Z,89.87
2022-10-11T09:59:57.852Z,89.83
2022-10-11T10:00:57.842Z,89.83
2022-10-11T10:01:57.882Z,89.83
2022-10-11T10:02:57.806Z,89.83
2022-10-11T10:03:57.799Z,89.94
2022-10-11T10:04:57.803Z,89.83
2022-10-11T10:05:57.794Z,89.94
2022-10-11T10:06:57.788Z,89.83
2022-10-11T10:08:00.587Z,89.73
2022-10-11T10:08:57.751Z,89.73
2022-10-11T10:09:57.743Z,89.73
2022-10-11T10:10:59.595Z,89.79
2022-10-11T10:11:57.729Z,89.79
2022-10-11T10:12:57.737Z,89.79
2022-10-11T10:13:57.716Z,89.79
2022-10-11T10:14:57.694Z,89.89
2022-10-11T10:15:57.693Z,89.79
2022-10-11T10:16:57.687Z,89.79
2022-10-11T10:17:57.678Z,89.69
2022-10-11T10:18:57.730Z,89.48
2022-10-11T10:19:57.656Z,89.28
2022-10-11T10:20:57.652Z,89.28
2022-10-11T10:21:57.648Z,89.08
2022-10-11T10:22:57.661Z,88.88
2022-10-11T10:23:57.638Z,88.98
2022-10-11T10:24:57.617Z,88.88
2022-10-11T10:25:57.611Z,88.88
2022-10-11T10:26:57.602Z,88.78
2022-10-11T10:27:57.591Z,88.78
2022-10-11T10:28:57.604Z,88.78
2022-10-11T10:29:57.573Z,88.78
2022-10-11T10:30:57.560Z,88.57
2022-10-11T10:32:14.676Z,88.57
2022-10-11T10:32:57.530Z,88.48
2022-10-11T10:33:57.520Z,88.27
2022-10-11T10:34:57.526Z,88.27
2022-10-11T10:35:57.521Z,88.27
2022-10-11T10:36:57.502Z,88.27
2022-10-11T10:37:57.519Z,88.37
2022-10-11T10:38:57.488Z,88.37
2022-10-11T10:39:57.476Z,88.48
2022-10-11T10:40:57.453Z,88.48
2022-10-11T10:41:57.466Z,88.48
2022-10-11T10:42:57.458Z,88.48
2022-10-11T10:43:57.448Z,88.48
2022-10-11T10:44:57.415Z,88.48
2022-10-11T10:45:57.427Z,88.48
2022-10-11T10:46:57.395Z,88.48
2022-10-11T10:47:57.395Z,88.57
2022-10-11T10:49:57.391Z,88.27
2022-10-11T10:50:57.369Z,88.37
2022-10-11T10:51:57.370Z,88.37
2022-10-11T10:52:57.347Z,88.07
2022-10-11T10:53:57.338Z,88.27
2022-10-11T10:54:57.338Z,88.23
2022-10-11T10:55:57.340Z,87.93
